sensor_id;sensor_type;location;lat;lon;timestamp;pressure;altitude;pressure_sealevel;temperature
60615;BMP280;46444;45.590;5.284;2022-10-18T00:02:05;99828.69;;;21.27
60615;BMP280;46444;45.590;5.284;2022-10-18T00:04:31;99823.00;;;21.23
60615;BMP280;46444;45.590;5.284;2022-10-18T00:06:56;99830.63;;;21.21
60615;BMP280;46444;45.590;5.284;2022-10-18T00:09:22;99825.22;;;21.16
60615;BMP280;46444;45.590;5.284;2022-10-18T00:11:47;99826.84;;;21.12
60615;BMP280;46444;45.590;5.284;2022-10-18T00:14:13;99826.84;;;21.12
60615;BMP280;46444;45.590;5.284;2022-10-18T00:16:38;99831.47;;;21.12
60615;BMP280;46444;45.590;5.284;2022-10-18T00:19:03;99823.84;;;21.14
60615;BMP280;46444;45.590;5.284;2022-10-18T00:21:29;99812.19;;;21.08
60615;BMP280;46444;45.590;5.284;2022-10-18T00:23:54;99816.81;;;21.13
60615;BMP280;46444;45.590;5.284;2022-10-18T00:26:25;99812.97;;;21.14
60615;BMP280;46444;45.590;5.284;2022-10-18T00:28:56;99826.31;;;21.10
60615;BMP280;46444;45.590;5.284;2022-10-18T00:31:31;99827.38;;;21.14
60615;BMP280;46444;45.590;5.284;2022-10-18T00:33:59;99825.78;;;21.08
60615;BMP280;46444;45.590;5.284;2022-10-18T00:36:26;99830.16;;;21.04
60615;BMP280;46444;45.590;5.284;2022-10-18T00:38:52;99831.81;;;21.00
60615;BMP280;46444;45.590;5.284;2022-10-18T00:41:21;99849.22;;;20.94
60615;BMP280;46444;45.590;5.284;2022-10-18T00:46:36;99845.97;;;20.92
60615;BMP280;46444;45.590;5.284;2022-10-18T00:49:03;99842.16;;;20.83
60615;BMP280;46444;45.590;5.284;2022-10-18T00:51:37;99832.41;;;20.82
60615;BMP280;46444;45.590;5.284;2022-10-18T00:54:03;99840.53;;;20.87
60615;BMP280;46444;45.590;5.284;2022-10-18T00:56:29;99838.34;;;20.84
60615;BMP280;46444;45.590;5.284;2022-10-18T00:58:54;99832.13;;;20.84
60615;BMP280;46444;45.590;5.284;2022-10-18T01:01:21;99828.59;;;20.73
60615;BMP280;46444;45.590;5.284;2022-10-18T01:03:47;99826.47;;;20.70
60615;BMP280;46444;45.590;5.284;2022-10-18T01:06:13;99832.97;;;20.74
60615;BMP280;46444;45.590;5.284;2022-10-18T01:16:52;99830.03;;;20.61
60615;BMP280;46444;45.590;5.284;2022-10-18T01:22:36;99833.00;;;20.59
60615;BMP280;46444;45.590;5.284;2022-10-18T01:27:49;99823.56;;;20.47
60615;BMP280;46444;45.590;5.284;2022-10-18T01:30:35;99826.53;;;20.50
60615;BMP280;46444;45.590;5.284;2022-10-18T01:33:19;99823.00;;;20.55
60615;BMP280;46444;45.590;5.284;2022-10-18T01:35:55;99825.44;;;20.56
60615;BMP280;46444;45.590;5.284;2022-10-18T01:38:23;99821.91;;;20.46
60615;BMP280;46444;45.590;5.284;2022-10-18T01:40:50;99829.25;;;20.50
60615;BMP280;46444;45.590;5.284;2022-10-18T01:43:17;99830.88;;;20.51
60615;BMP280;46444;45.590;5.284;2022-10-18T01:45:43;99824.09;;;20.54
60615;BMP280;46444;45.590;5.284;2022-10-18T01:48:10;99826.28;;;20.47
60615;BMP280;46444;45.590;5.284;2022-10-18T01:50:36;99822.75;;;20.46
60615;BMP280;46444;45.590;5.284;2022-10-18T01:53:02;99825.72;;;20.40
60615;BMP280;46444;45.590;5.284;2022-10-18T01:55:41;99815.16;;;20.38
60615;BMP280;46444;45.590;5.284;2022-10-18T02:00:59;99830.63;;;20.33
60615;BMP280;46444;45.590;5.284;2022-10-18T02:03:28;99824.41;;;20.27
60615;BMP280;46444;45.590;5.284;2022-10-18T02:09:11;99837.47;;;20.20
60615;BMP280;46444;45.590;5.284;2022-10-18T02:11:39;99837.47;;;20.15
60615;BMP280;46444;45.590;5.284;2022-10-18T02:14:09;99837.44;;;20.05
60615;BMP280;46444;45.590;5.284;2022-10-18T02:16:38;99835.81;;;19.99
60615;BMP280;46444;45.590;5.284;2022-10-18T02:19:11;99838.53;;;19.94
60615;BMP280;46444;45.590;5.284;2022-10-18T02:21:41;99838.53;;;19.94
60615;BMP280;46444;45.590;5.284;2022-10-18T02:24:09;99829.84;;;19.97
60615;BMP280;46444;45.590;5.284;2022-10-18T02:26:35;99826.84;;;19.99
60615;BMP280;46444;45.590;5.284;2022-10-18T02:29:00;99829.84;;;19.92
60615;BMP280;46444;45.590;5.284;2022-10-18T02:31:41;99822.25;;;19.99
60615;BMP280;46444;45.590;5.284;2022-10-18T02:34:27;99818.16;;;19.92
60615;BMP280;46444;45.590;5.284;2022-10-18T02:37:01;99825.50;;;19.96
60615;BMP280;46444;45.590;5.284;2022-10-18T02:39:39;99816.28;;;19.92
60615;BMP280;46444;45.590;5.284;2022-10-18T02:42:08;99824.41;;;19.87
60615;BMP280;46444;45.590;5.284;2022-10-18T02:44:35;99822.53;;;19.78
60615;BMP280;46444;45.590;5.284;2022-10-18T02:47:02;99816.53;;;19.81
60615;BMP280;46444;45.590;5.284;2022-10-18T02:49:28;99820.63;;;19.68
60615;BMP280;46444;45.590;5.284;2022-10-18T02:51:53;99823.03;;;19.75
60615;BMP280;46444;45.590;5.284;2022-10-18T02:54:18;99820.91;;;19.82
60615;BMP280;46444;45.590;5.284;2022-10-18T02:56:44;99828.75;;;19.73
60615;BMP280;46444;45.590;5.284;2022-10-18T02:59:10;99836.06;;;19.63
60615;BMP280;46444;45.590;5.284;2022-10-18T03:01:35;99838.53;;;19.74
60615;BMP280;46444;45.590;5.284;2022-10-18T03:04:01;99836.63;;;19.65
60615;BMP280;46444;45.590;5.284;2022-10-18T03:06:27;99843.38;;;19.57
60615;BMP280;46444;45.590;5.284;2022-10-18T03:08:52;99847.19;;;19.61
60615;BMP280;46444;45.590;5.284;2022-10-18T03:11:18;99850.44;;;19.58
60615;BMP280;46444;45.590;5.284;2022-10-18T03:13:43;99851.50;;;19.52
60615;BMP280;46444;45.590;5.284;2022-10-18T03:16:08;99851.00;;;19.55
60615;BMP280;46444;45.590;5.284;2022-10-18T03:18:34;99847.16;;;19.46
60615;BMP280;46444;45.590;5.284;2022-10-18T03:21:03;99847.16;;;19.46
60615;BMP280;46444;45.590;5.284;2022-10-18T03:23:29;99837.38;;;19.40
60615;BMP280;46444;45.590;5.284;2022-10-18T03:25:54;99844.19;;;19.43
60615;BMP280;46444;45.590;5.284;2022-10-18T03:28:20;99848.78;;;19.38
60615;BMP280;46444;45.590;5.284;2022-10-18T03:30:45;99855.00;;;19.33
60615;BMP280;46444;45.590;5.284;2022-10-18T03:33:10;99846.88;;;19.28
60615;BMP280;46444;45.590;5.284;2022-10-18T03:35:35;99854.19;;;19.33
60615;BMP280;46444;45.590;5.284;2022-10-18T03:38:01;99852.28;;;19.28
60615;BMP280;46444;45.590;5.284;2022-10-18T03:40:26;99853.09;;;19.28
60615;BMP280;46444;45.590;5.284;2022-10-18T03:42:51;99851.97;;;19.24
60615;BMP280;46444;45.590;5.284;2022-10-18T03:45:17;99846.56;;;19.24
60615;BMP280;46444;45.590;5.284;2022-10-18T03:47:42;99853.63;;;19.26
60615;BMP280;46444;45.590;5.284;2022-10-18T03:50:08;99857.91;;;19.16
60615;BMP280;46444;45.590;5.284;2022-10-18T03:52:33;99851.94;;;19.14
60615;BMP280;46444;45.590;5.284;2022-10-18T03:54:58;99869.25;;;19.08
60615;BMP280;46444;45.590;5.284;2022-10-18T03:57:24;99850.84;;;19.10
60615;BMP280;46444;45.590;5.284;2022-10-18T03:59:49;99848.69;;;19.08
60615;BMP280;46444;45.590;5.284;2022-10-18T04:02:14;99859.50;;;19.08
60615;BMP280;46444;45.590;5.284;2022-10-18T04:04:39;99856.25;;;19.10
60615;BMP280;46444;45.590;5.284;2022-10-18T04:07:05;99869.25;;;19.08
60615;BMP280;46444;45.590;5.284;2022-10-18T04:09:30;99873.56;;;19.04
60615;BMP280;46444;45.590;5.284;2022-10-18T04:11:55;99865.22;;;19.11
60615;BMP280;46444;45.590;5.284;2022-10-18T04:14:21;99874.16;;;19.16
60615;BMP280;46444;45.590;5.284;2022-10-18T04:16:46;99877.09;;;19.10
60615;BMP280;46444;45.590;5.284;2022-10-18T04:19:12;99876.84;;;19.11
60615;BMP280;46444;45.590;5.284;2022-10-18T04:21:37;99879.03;;;19.14
60615;BMP280;46444;45.590;5.284;2022-10-18T04:24:03;99872.50;;;19.10
60615;BMP280;46444;45.590;5.284;2022-10-18T04:26:28;99879.28;;;19.08
60615;BMP280;46444;45.590;5.284;2022-10-18T04:28:53;99883.31;;;19.05
60615;BMP280;46444;45.590;5.284;2022-10-18T04:31:19;99877.88;;;19.00
60615;BMP280;46444;45.590;5.284;2022-10-18T04:33:44;99874.66;;;19.03
60615;BMP280;46444;45.590;5.284;2022-10-18T04:36:10;99882.25;;;19.02
60615;BMP280;46444;45.590;5.284;2022-10-18T04:38:35;99889.00;;;19.04
60615;BMP280;46444;45.590;5.284;2022-10-18T04:41:00;99889.84;;;19.04
60615;BMP280;46444;45.590;5.284;2022-10-18T04:43:26;99889.53;;;19.01
60615;BMP280;46444;45.590;5.284;2022-10-18T04:45:51;99895.25;;;19.04
60615;BMP280;46444;45.590;5.284;2022-10-18T04:48:17;99891.16;;;19.02
60615;BMP280;46444;45.590;5.284;2022-10-18T04:50:43;99887.09;;;18.99
60615;BMP280;46444;45.590;5.284;2022-10-18T04:53:08;99878.94;;;18.94
60615;BMP280;46444;45.590;5.284;2022-10-18T04:55:34;99874.09;;;18.97
60615;BMP280;46444;45.590;5.284;2022-10-18T04:57:59;99868.09;;;18.94
60615;BMP280;46444;45.590;5.284;2022-10-18T05:00:24;99864.84;;;18.92
60615;BMP280;46444;45.590;5.284;2022-10-18T05:02:55;99871.88;;;18.84
60615;BMP280;46444;45.590;5.284;2022-10-18T05:05:21;99868.63;;;18.87
60615;BMP280;46444;45.590;5.284;2022-10-18T05:07:46;99886.50;;;18.88
60615;BMP280;46444;45.590;5.284;2022-10-18T05:10:12;99881.09;;;18.88
60615;BMP280;46444;45.590;5.284;2022-10-18T05:12:37;99886.75;;;18.86
60615;BMP280;46444;45.590;5.284;2022-10-18T05:15:02;99883.22;;;18.81
60615;BMP280;46444;45.590;5.284;2022-10-18T05:17:28;99878.84;;;18.75
60615;BMP280;46444;45.590;5.284;2022-10-18T05:19:53;99878.84;;;18.75
60615;BMP280;46444;45.590;5.284;2022-10-18T05:22:18;99879.41;;;18.77
60615;BMP280;46444;45.590;5.284;2022-10-18T05:24:44;99869.34;;;18.67
60615;BMP280;46444;45.590;5.284;2022-10-18T05:27:09;99877.75;;;18.71
60615;BMP280;46444;45.590;5.284;2022-10-18T05:29:35;99871.84;;;18.79
60615;BMP280;46444;45.590;5.284;2022-10-18T05:32:00;99879.97;;;18.79
60615;BMP280;46444;45.590;5.284;2022-10-18T05:34:25;99880.19;;;18.72
60615;BMP280;46444;45.590;5.284;2022-10-18T05:36:51;99879.41;;;18.72
60615;BMP280;46444;45.590;5.284;2022-10-18T05:39:17;99879.41;;;18.72
60615;BMP280;46444;45.590;5.284;2022-10-18T05:41:42;99879.91;;;18.69
60615;BMP280;46444;45.590;5.284;2022-10-18T05:44:08;99877.22;;;18.74
60615;BMP280;46444;45.590;5.284;2022-10-18T05:46:33;99886.44;;;18.73
60615;BMP280;46444;45.590;5.284;2022-10-18T05:48:59;99876.66;;;18.67
60615;BMP280;46444;45.590;5.284;2022-10-18T05:51:24;99879.91;;;18.69
60615;BMP280;46444;45.590;5.284;2022-10-18T05:53:49;99875.03;;;18.66
60615;BMP280;46444;45.590;5.284;2022-10-18T05:56:15;99870.13;;;18.63
60615;BMP280;46444;45.590;5.284;2022-10-18T05:58:41;99888.53;;;18.61
60615;BMP280;46444;45.590;5.284;2022-10-18T06:01:08;99878.50;;;18.61
60615;BMP280;46444;45.590;5.284;2022-10-18T06:03:34;99874.41;;;18.59
60615;BMP280;46444;45.590;5.284;2022-10-18T06:06:07;99877.09;;;18.54
60615;BMP280;46444;45.590;5.284;2022-10-18T06:08:33;99881.97;;;18.52
60615;BMP280;46444;45.590;5.284;2022-10-18T06:11:05;99886.84;;;18.50
60615;BMP280;46444;45.590;5.284;2022-10-18T06:13:30;99869.81;;;18.54
60615;BMP280;46444;45.590;5.284;2022-10-18T06:15:56;99864.13;;;18.56
60615;BMP280;46444;45.590;5.284;2022-10-18T06:18:21;99866.25;;;18.54
60615;BMP280;46444;45.590;5.284;2022-10-18T06:20:47;99871.44;;;18.55
60615;BMP280;46444;45.590;5.284;2022-10-18T06:23:12;99874.94;;;18.51
60615;BMP280;46444;45.590;5.284;2022-10-18T06:25:37;99876.50;;;18.47
60615;BMP280;46444;45.590;5.284;2022-10-18T06:28:04;99878.97;;;18.48
60615;BMP280;46444;45.590;5.284;2022-10-18T06:30:29;99884.13;;;18.50
60615;BMP280;46444;45.590;5.284;2022-10-18T06:32:58;99880.88;;;18.53
60615;BMP280;46444;45.590;5.284;2022-10-18T06:35:24;99878.19;;;18.53
60615;BMP280;46444;45.590;5.284;2022-10-18T06:37:49;99890.06;;;18.47
60615;BMP280;46444;45.590;5.284;2022-10-18T06:40:14;99887.13;;;18.53
60615;BMP280;46444;45.590;5.284;2022-10-18T06:42:40;99892.25;;;18.50
60615;BMP280;46444;45.590;5.284;2022-10-18T06:45:06;99893.63;;;18.52
60615;BMP280;46444;45.590;5.284;2022-10-18T06:47:32;99898.50;;;18.55
60615;BMP280;46444;45.590;5.284;2022-10-18T06:49:57;99896.91;;;18.59
60615;BMP280;46444;45.590;5.284;2022-10-18T06:52:23;99895.03;;;18.60
60615;BMP280;46444;45.590;5.284;2022-10-18T06:54:50;99897.19;;;18.63
60615;BMP280;46444;45.590;5.284;2022-10-18T06:57:15;99916.13;;;18.58
60615;BMP280;46444;45.590;5.284;2022-10-18T06:59:41;99911.03;;;18.66
60615;BMP280;46444;45.590;5.284;2022-10-18T07:02:06;99912.94;;;18.71
60615;BMP280;46444;45.590;5.284;2022-10-18T07:04:31;99900.78;;;18.73
60615;BMP280;46444;45.590;5.284;2022-10-18T07:06:57;99904.84;;;18.76
60615;BMP280;46444;45.590;5.284;2022-10-18T07:09:22;99905.44;;;18.78
60615;BMP280;46444;45.590;5.284;2022-10-18T07:11:47;99907.56;;;18.76
60615;BMP280;46444;45.590;5.284;2022-10-18T07:14:13;99910.84;;;18.78
60615;BMP280;46444;45.590;5.284;2022-10-18T07:16:38;99906.53;;;18.87
60615;BMP280;46444;45.590;5.284;2022-10-18T07:19:04;99903.00;;;18.86
60615;BMP280;46444;45.590;5.284;2022-10-18T07:21:29;99904.41;;;18.93
60615;BMP280;46444;45.590;5.284;2022-10-18T07:23:56;99901.44;;;18.95
60615;BMP280;46444;45.590;5.284;2022-10-18T07:26:22;99912.06;;;19.02
60615;BMP280;46444;45.590;5.284;2022-10-18T07:28:51;99902.84;;;19.02
60615;BMP280;46444;45.590;5.284;2022-10-18T07:31:18;99915.03;;;19.10
60615;BMP280;46444;45.590;5.284;2022-10-18T07:33:44;99911.84;;;19.18
60615;BMP280;46444;45.590;5.284;2022-10-18T07:36:10;99927.84;;;19.19
60615;BMP280;46444;45.590;5.284;2022-10-18T07:38:36;99928.16;;;19.23
60615;BMP280;46444;45.590;5.284;2022-10-18T07:41:03;99923.56;;;19.28
60615;BMP280;46444;45.590;5.284;2022-10-18T07:43:30;99927.91;;;19.34
60615;BMP280;46444;45.590;5.284;2022-10-18T07:45:58;99920.91;;;19.38
60615;BMP280;46444;45.590;5.284;2022-10-18T07:48:24;99927.41;;;19.42
60615;BMP280;46444;45.590;5.284;2022-10-18T07:50:50;99932.84;;;19.47
60615;BMP280;46444;45.590;5.284;2022-10-18T07:53:15;99931.22;;;19.51
60615;BMP280;46444;45.590;5.284;2022-10-18T07:55:41;99925.00;;;19.56
60615;BMP280;46444;45.590;5.284;2022-10-18T07:58:06;99925.28;;;19.59
60615;BMP280;46444;45.590;5.284;2022-10-18T08:00:32;99926.38;;;19.63
60615;BMP280;46444;45.590;5.284;2022-10-18T08:02:58;99929.13;;;19.68
60615;BMP280;46444;45.590;5.284;2022-10-18T08:05:25;99928.56;;;19.71
60615;BMP280;46444;45.590;5.284;2022-10-18T08:07:52;99922.63;;;19.74
60615;BMP280;46444;45.590;5.284;2022-10-18T08:10:17;99919.38;;;19.82
60615;BMP280;46444;45.590;5.284;2022-10-18T08:12:42;99915.84;;;19.87
60615;BMP280;46444;45.590;5.284;2022-10-18T08:15:08;99905.28;;;19.90
60615;BMP280;46444;45.590;5.284;2022-10-18T08:17:33;99905.56;;;19.94
60615;BMP280;46444;45.590;5.284;2022-10-18T08:19:59;99896.88;;;20.02
60615;BMP280;46444;45.590;5.284;2022-10-18T08:22:24;99891.47;;;20.07
60615;BMP280;46444;45.590;5.284;2022-10-18T08:24:50;99895.81;;;20.13
60615;BMP280;46444;45.590;5.284;2022-10-18T08:27:15;99893.38;;;20.16
60615;BMP280;46444;45.590;5.284;2022-10-18T08:29:40;99897.19;;;20.20
60615;BMP280;46444;45.590;5.284;2022-10-18T08:32:06;99900.97;;;20.24
60615;BMP280;46444;45.590;5.284;2022-10-18T08:34:34;99902.59;;;20.30
60615;BMP280;46444;45.590;5.284;2022-10-18T08:37:01;99897.41;;;20.29
60615;BMP280;46444;45.590;5.284;2022-10-18T08:39:26;99893.34;;;20.36
60615;BMP280;46444;45.590;5.284;2022-10-18T08:44:45;99905.56;;;20.44
60615;BMP280;46444;45.590;5.284;2022-10-18T08:47:14;99893.34;;;20.46
60615;BMP280;46444;45.590;5.284;2022-10-18T08:49:48;99895.78;;;20.53
60615;BMP280;46444;45.590;5.284;2022-10-18T08:55:00;99893.88;;;20.58
60615;BMP280;46444;45.590;5.284;2022-10-18T08:57:26;99893.28;;;20.66
60615;BMP280;46444;45.590;5.284;2022-10-18T08:59:52;99890.31;;;20.68
60615;BMP280;46444;45.590;5.284;2022-10-18T09:05:14;99903.56;;;20.79
60615;BMP280;46444;45.590;5.284;2022-10-18T09:11:06;99889.47;;;20.82
60615;BMP280;46444;45.590;5.284;2022-10-18T09:13:56;99903.31;;;20.86
60615;BMP280;46444;45.590;5.284;2022-10-18T09:16:38;99888.91;;;20.90
60615;BMP280;46444;45.590;5.284;2022-10-18T09:19:14;99885.38;;;20.95
60615;BMP280;46444;45.590;5.284;2022-10-18T09:21:53;99885.63;;;20.98
60615;BMP280;46444;45.590;5.284;2022-10-18T09:24:43;99881.25;;;21.02
60615;BMP280;46444;45.590;5.284;2022-10-18T09:27:15;99873.06;;;21.07
60615;BMP280;46444;45.590;5.284;2022-10-18T09:35:16;99882.28;;;21.21
60615;BMP280;46444;45.590;5.284;2022-10-18T09:37:44;99876.28;;;21.24
60615;BMP280;46444;45.590;5.284;2022-10-18T09:40:14;99873.78;;;21.28
60615;BMP280;46444;45.590;5.284;2022-10-18T09:42:47;99861.25;;;21.37
60615;BMP280;46444;45.590;5.284;2022-10-18T09:48:12;99862.28;;;21.46
60615;BMP280;46444;45.590;5.284;2022-10-18T09:50:42;99863.63;;;21.48
60615;BMP280;46444;45.590;5.284;2022-10-18T09:53:16;99859.25;;;21.52
60615;BMP280;46444;45.590;5.284;2022-10-18T09:56:04;99861.41;;;21.55
60615;BMP280;46444;45.590;5.284;2022-10-18T09:58:40;99868.69;;;21.60
60615;BMP280;46444;45.590;5.284;2022-10-18T10:01:07;99865.69;;;21.66
60615;BMP280;46444;45.590;5.284;2022-10-18T10:03:34;99858.03;;;21.73
60615;BMP280;46444;45.590;5.284;2022-10-18T10:06:29;99866.69;;;21.80
60615;BMP280;46444;45.590;5.284;2022-10-18T10:09:06;99860.09;;;21.86
60615;BMP280;46444;45.590;5.284;2022-10-18T10:11:48;99855.72;;;21.90
60615;BMP280;46444;45.590;5.284;2022-10-18T10:14:27;99849.78;;;21.88
60615;BMP280;46444;45.590;5.284;2022-10-18T10:17:02;99845.38;;;21.92
60615;BMP280;46444;45.590;5.284;2022-10-18T10:19:34;99837.47;;;21.96
60615;BMP280;46444;45.590;5.284;2022-10-18T10:22:08;99845.56;;;22.01
60615;BMP280;46444;45.590;5.284;2022-10-18T10:24:47;99842.81;;;22.06
60615;BMP280;46444;45.590;5.284;2022-10-18T10:32:12;99834.28;;;22.17
60615;BMP280;46444;45.590;5.284;2022-10-18T10:34:37;99839.13;;;22.20
60615;BMP280;46444;45.590;5.284;2022-10-18T10:40:13;99834.16;;;22.27
60615;BMP280;46444;45.590;5.284;2022-10-18T10:45:20;99826.19;;;22.36
60615;BMP280;46444;45.590;5.284;2022-10-18T10:47:47;99827.75;;;22.42
60615;BMP280;46444;45.590;5.284;2022-10-18T10:50:22;99821.78;;;22.45
60615;BMP280;46444;45.590;5.284;2022-10-18T10:52:47;99823.38;;;22.46
60615;BMP280;46444;45.590;5.284;2022-10-18T10:55:19;99819.00;;;22.50
60615;BMP280;46444;45.590;5.284;2022-10-18T10:57:47;99815.91;;;22.56
60615;BMP280;46444;45.590;5.284;2022-10-18T11:00:36;99819.16;;;22.58
60615;BMP280;46444;45.590;5.284;2022-10-18T11:05:47;99818.53;;;22.66
60615;BMP280;46444;45.590;5.284;2022-10-18T11:08:17;99816.31;;;22.68
60615;BMP280;46444;45.590;5.284;2022-10-18T11:15:56;99801.41;;;22.84
60615;BMP280;46444;45.590;5.284;2022-10-18T11:18:29;99797.00;;;22.88
60615;BMP280;46444;45.590;5.284;2022-10-18T11:21:04;99800.47;;;22.94
60615;BMP280;46444;45.590;5.284;2022-10-18T11:23:33;99790.59;;;22.98
60615;BMP280;46444;45.590;5.284;2022-10-18T11:42:58;99777.34;;;23.28
60615;BMP280;46444;45.590;5.284;2022-10-18T11:46:03;99755.97;;;23.35
60615;BMP280;46444;45.590;5.284;2022-10-18T11:51:29;99749.47;;;23.50
60615;BMP280;46444;45.590;5.284;2022-10-18T11:59:37;99729.63;;;23.76
60615;BMP280;46444;45.590;5.284;2022-10-18T12:02:42;99733.06;;;24.00
60615;BMP280;46444;45.590;5.284;2022-10-18T12:05:11;99731.69;;;24.43
60615;BMP280;46444;45.590;5.284;2022-10-18T12:07:54;99720.72;;;25.55
60615;BMP280;46444;45.590;5.284;2022-10-18T12:10:21;99719.06;;;26.93
60615;BMP280;46444;45.590;5.284;2022-10-18T12:12:50;99715.88;;;27.42
60615;BMP280;46444;45.590;5.284;2022-10-18T12:15:22;99712.44;;;28.62
60615;BMP280;46444;45.590;5.284;2022-10-18T12:17:54;99715.88;;;29.29
60615;BMP280;46444;45.590;5.284;2022-10-18T12:22:58;99697.81;;;30.29
60615;BMP280;46444;45.590;5.284;2022-10-18T12:25:27;99692.91;;;30.71
60615;BMP280;46444;45.590;5.284;2022-10-18T12:33:49;99694.03;;;32.69
60615;BMP280;46444;45.590;5.284;2022-10-18T12:36:26;99685.56;;;33.50
60615;BMP280;46444;45.590;5.284;2022-10-18T12:39:00;99674.03;;;34.12
60615;BMP280;46444;45.590;5.284;2022-10-18T12:41:30;99677.31;;;34.66
60615;BMP280;46444;45.590;5.284;2022-10-18T12:44:05;99661.94;;;34.72
60615;BMP280;46444;45.590;5.284;2022-10-18T12:46:44;99659.41;;;35.19
60615;BMP280;46444;45.590;5.284;2022-10-18T12:49:11;99661.09;;;34.42
60615;BMP280;46444;45.590;5.284;2022-10-18T12:51:58;99651.53;;;35.57
60615;BMP280;46444;45.590;5.284;2022-10-18T12:54:33;99647.91;;;35.90
60615;BMP280;46444;45.590;5.284;2022-10-18T12:57:00;99633.56;;;36.28
60615;BMP280;46444;45.590;5.284;2022-10-18T13:09:27;99598.53;;;36.88
60615;BMP280;46444;45.590;5.284;2022-10-18T13:11:56;99590.28;;;35.47
60615;BMP280;46444;45.590;5.284;2022-10-18T13:14:41;99589.81;;;36.96
60615;BMP280;46444;45.590;5.284;2022-10-18T13:17:34;99589.09;;;36.38
60615;BMP280;46444;45.590;5.284;2022-10-18T13:20:24;99591.09;;;36.45
60615;BMP280;46444;45.590;5.284;2022-10-18T13:25:48;99584.16;;;36.79
60615;BMP280;46444;45.590;5.284;2022-10-18T13:28:39;99580.56;;;36.75
60615;BMP280;46444;45.590;5.284;2022-10-18T13:31:22;99585.16;;;37.28
60615;BMP280;46444;45.590;5.284;2022-10-18T13:33:51;99582.38;;;37.32
60615;BMP280;46444;45.590;5.284;2022-10-18T13:41:24;99580.00;;;37.41
60615;BMP280;46444;45.590;5.284;2022-10-18T13:55:36;99576.28;;;37.02
60615;BMP280;46444;45.590;5.284;2022-10-18T14:06:58;99567.00;;;36.66
60615;BMP280;46444;45.590;5.284;2022-10-18T14:09:28;99555.38;;;36.61
60615;BMP280;46444;45.590;5.284;2022-10-18T14:12:05;99555.19;;;36.26
60615;BMP280;46444;45.590;5.284;2022-10-18T14:14:52;99546.19;;;35.49
60615;BMP280;46444;45.590;5.284;2022-10-18T14:17:35;99550.50;;;35.43
60615;BMP280;46444;45.590;5.284;2022-10-18T14:20:16;99556.41;;;35.02
60615;BMP280;46444;45.590;5.284;2022-10-18T14:22:47;99555.19;;;34.14
60615;BMP280;46444;45.590;5.284;2022-10-18T14:25:36;99552.19;;;34.00
60615;BMP280;46444;45.590;5.284;2022-10-18T14:28:05;99550.03;;;33.68
60615;BMP280;46444;45.590;5.284;2022-10-18T14:30:31;99552.59;;;33.12
60615;BMP280;46444;45.590;5.284;2022-10-18T14:32:56;99547.56;;;32.99
60615;BMP280;46444;45.590;5.284;2022-10-18T14:35:25;99553.06;;;32.76
60615;BMP280;46444;45.590;5.284;2022-10-18T14:37:53;99555.69;;;32.19
60615;BMP280;46444;45.590;5.284;2022-10-18T14:40:34;99551.63;;;31.98
60615;BMP280;46444;45.590;5.284;2022-10-18T14:43:18;99541.72;;;31.66
60615;BMP280;46444;45.590;5.284;2022-10-18T14:45:43;99545.53;;;31.30
60615;BMP280;46444;45.590;5.284;2022-10-18T14:48:20;99546.28;;;31.15
60615;BMP280;46444;45.590;5.284;2022-10-18T14:50:47;99553.28;;;30.58
60615;BMP280;46444;45.590;5.284;2022-10-18T14:53:16;99541.63;;;30.37
60615;BMP280;46444;45.590;5.284;2022-10-18T14:55:51;68090.63;;;-139.05
60615;BMP280;46444;45.590;5.284;2022-10-18T14:58:17;68090.63;;;-139.05
60615;BMP280;46444;45.590;5.284;2022-10-18T15:00:44;68090.63;;;-139.05
60615;BMP280;46444;45.590;5.284;2022-10-18T15:03:13;68090.63;;;-139.05
60615;BMP280;46444;45.590;5.284;2022-10-18T15:06:00;68090.63;;;-139.05
60615;BMP280;46444;45.590;5.284;2022-10-18T15:08:33;68090.63;;;-139.05
60615;BMP280;46444;45.590;5.284;2022-10-18T15:11:00;68090.63;;;-139.05
60615;BMP280;46444;45.590;5.284;2022-10-18T15:13:25;68090.63;;;-139.05
60615;BMP280;46444;45.590;5.284;2022-10-18T15:15:52;68090.63;;;-139.05
60615;BMP280;46444;45.590;5.284;2022-10-18T15:18:23;99541.63;;;30.37
60615;BMP280;46444;45.590;5.284;2022-10-18T15:23:32;99523.47;;;28.42
60615;BMP280;46444;45.590;5.284;2022-10-18T15:26:06;99520.44;;;28.56
60615;BMP280;46444;45.590;5.284;2022-10-18T15:28:35;99509.28;;;28.32
60615;BMP280;46444;45.590;5.284;2022-10-18T15:31:02;99520.47;;;28.06
60615;BMP280;46444;45.590;5.284;2022-10-18T15:33:28;99521.81;;;28.00
60615;BMP280;46444;45.590;5.284;2022-10-18T15:36:16;99524.34;;;27.76
60615;BMP280;46444;45.590;5.284;2022-10-18T15:38:44;99520.66;;;27.72
60615;BMP280;46444;45.590;5.284;2022-10-18T15:41:35;99518.25;;;27.62
60615;BMP280;46444;45.590;5.284;2022-10-18T15:44:27;99518.91;;;27.30
60615;BMP280;46444;45.590;5.284;2022-10-18T15:47:15;99518.59;;;27.23
60615;BMP280;46444;45.590;5.284;2022-10-18T15:54:41;99511.06;;;26.86
60615;BMP280;46444;45.590;5.284;2022-10-18T15:57:10;99522.53;;;26.80
60615;BMP280;46444;45.590;5.284;2022-10-18T15:59:47;99517.22;;;26.66
60615;BMP280;46444;45.590;5.284;2022-10-18T16:02:13;99512.41;;;26.63
60615;BMP280;46444;45.590;5.284;2022-10-18T16:04:39;99515.44;;;26.45
60615;BMP280;46444;45.590;5.284;2022-10-18T16:07:04;99511.88;;;26.44
60615;BMP280;46444;45.590;5.284;2022-10-18T16:09:30;99512.69;;;26.36
60615;BMP280;46444;45.590;5.284;2022-10-18T16:11:55;99511.38;;;26.25
60615;BMP280;46444;45.590;5.284;2022-10-18T16:14:22;99518.63;;;26.04
60615;BMP280;46444;45.590;5.284;2022-10-18T16:16:51;99516.06;;;26.08
60615;BMP280;46444;45.590;5.284;2022-10-18T16:19:16;99512.91;;;25.84
60615;BMP280;46444;45.590;5.284;2022-10-18T16:21:49;99510.00;;;25.80
60615;BMP280;46444;45.590;5.284;2022-10-18T16:24:14;99514.94;;;25.70
60615;BMP280;46444;45.590;5.284;2022-10-18T16:26:40;99502.50;;;25.55
60615;BMP280;46444;45.590;5.284;2022-10-18T16:29:08;99506.81;;;25.39
60615;BMP280;46444;45.590;5.284;2022-10-18T16:31:35;99514.00;;;25.27
60615;BMP280;46444;45.590;5.284;2022-10-18T16:34:00;99506.69;;;25.22
60615;BMP280;46444;45.590;5.284;2022-10-18T16:36:28;99513.34;;;24.99
60615;BMP280;46444;45.590;5.284;2022-10-18T16:38:56;99511.72;;;24.98
60615;BMP280;46444;45.590;5.284;2022-10-18T16:41:22;99516.13;;;24.86
60615;BMP280;46444;45.590;5.284;2022-10-18T16:43:48;99520.25;;;24.75